sensor_id;sensor_type;location;lat;lon;timestamp;P1;durP1;ratioP1;P2;durP2;ratioP2
215;SDS011;70668;48.81286795;9.14184224;2023-06-14T00:00:35;15.40;;;7.50;;
215;SDS011;70668;48.81286795;9.14184224;2023-06-14T00:03:06;12.87;;;8.43;;
215;SDS011;70668;48.81286795;9.14184224;2023-06-14T00:05:35;12.67;;;7.77;;
215;SDS011;70668;48.81286795;9.14184224;2023-06-14T00:08:10;13.43;;;7.60;;
215;SDS011;70668;48.81286795;9.14184224;2023-06-14T00:10:39;14.93;;;8.23;;
215;SDS011;70668;48.81286795;9.14184224;2023-06-14T00:13:08;16.50;;;9.03;;
215;SDS011;70668;48.81286795;9.14184224;2023-06-14T00:15:37;12.97;;;8.90;;
215;SDS011;70668;48.81286795;9.14184224;2023-06-14T00:18:06;12.23;;;8.10;;
215;SDS011;70668;48.81286795;9.14184224;2023-06-14T00:20:36;11.80;;;7.90;;
215;SDS011;70668;48.81286795;9.14184224;2023-06-14T00:23:07;12.07;;;7.30;;
215;SDS011;70668;48.81286795;9.14184224;2023-06-14T00:25:38;11.20;;;7.40;;
215;SDS011;70668;48.81286795;9.14184224;2023-06-14T00:28:06;12.60;;;7.53;;
215;SDS011;70668;48.81286795;9.14184224;2023-06-14T00:30:34;14.00;;;7.47;;
215;SDS011;70668;48.81286795;9.14184224;2023-06-14T00:33:03;15.83;;;8.20;;
215;SDS011;70668;48.81286795;9.14184224;2023-06-14T00:35:31;15.37;;;7.80;;
215;SDS011;70668;48.81286795;9.14184224;2023-06-14T00:38:03;12.77;;;7.63;;
215;SDS011;70668;48.81286795;9.14184224;2023-06-14T00:40:32;13.00;;;7.50;;
215;SDS011;70668;48.81286795;9.14184224;2023-06-14T00:43:03;12.37;;;7.40;;
215;SDS011;70668;48.81286795;9.14184224;2023-06-14T00:45:31;12.63;;;7.60;;
215;SDS011;70668;48.81286795;9.14184224;2023-06-14T00:48:01;23.83;;;7.60;;
215;SDS011;70668;48.81286795;9.14184224;2023-06-14T00:50:31;13.00;;;7.70;;
215;SDS011;70668;48.81286795;9.14184224;2023-06-14T00:52:59;17.63;;;8.10;;
215;SDS011;70668;48.81286795;9.14184224;2023-06-14T00:55:29;12.20;;;7.90;;
215;SDS011;70668;48.81286795;9.14184224;2023-06-14T00:57:58;14.33;;;7.77;;
215;SDS011;70668;48.81286795;9.14184224;2023-06-14T01:00:29;14.33;;;7.60;;
215;SDS011;70668;48.81286795;9.14184224;2023-06-14T01:03:16;13.57;;;7.87;;
215;SDS011;70668;48.81286795;9.14184224;2023-06-14T01:06:08;11.57;;;7.93;;
215;SDS011;70668;48.81286795;9.14184224;2023-06-14T01:08:42;14.10;;;7.93;;
215;SDS011;70668;48.81286795;9.14184224;2023-06-14T01:11:18;13.13;;;7.87;;
215;SDS011;70668;48.81286795;9.14184224;2023-06-14T01:13:50;12.10;;;7.83;;
215;SDS011;70668;48.81286795;9.14184224;2023-06-14T01:16:24;13.27;;;7.57;;
215;SDS011;70668;48.81286795;9.14184224;2023-06-14T01:18:52;10.37;;;7.27;;
215;SDS011;70668;48.81286795;9.14184224;2023-06-14T01:21:21;11.60;;;7.33;;
215;SDS011;70668;48.81286795;9.14184224;2023-06-14T01:23:53;12.80;;;7.37;;
215;SDS011;70668;48.81286795;9.14184224;2023-06-14T01:26:21;11.43;;;7.20;;
215;SDS011;70668;48.81286795;9.14184224;2023-06-14T01:28:51;11.80;;;7.80;;
215;SDS011;70668;48.81286795;9.14184224;2023-06-14T01:31:23;14.40;;;8.03;;
215;SDS011;70668;48.81286795;9.14184224;2023-06-14T01:33:54;10.70;;;7.17;;
215;SDS011;70668;48.81286795;9.14184224;2023-06-14T01:36:23;12.57;;;7.83;;
215;SDS011;70668;48.81286795;9.14184224;2023-06-14T01:38:59;14.73;;;7.83;;
215;SDS011;70668;48.81286795;9.14184224;2023-06-14T01:41:27;11.90;;;7.53;;
215;SDS011;70668;48.81286795;9.14184224;2023-06-14T01:43:56;14.87;;;7.60;;
215;SDS011;70668;48.81286795;9.14184224;2023-06-14T01:46:26;12.30;;;7.67;;
215;SDS011;70668;48.81286795;9.14184224;2023-06-14T01:48:54;15.70;;;7.80;;
215;SDS011;70668;48.81286795;9.14184224;2023-06-14T01:51:23;12.00;;;7.60;;
215;SDS011;70668;48.81286795;9.14184224;2023-06-14T01:53:51;13.00;;;7.40;;
215;SDS011;70668;48.81286795;9.14184224;2023-06-14T01:56:23;12.40;;;7.73;;
215;SDS011;70668;48.81286795;9.14184224;2023-06-14T01:58:51;11.60;;;8.03;;
215;SDS011;70668;48.81286795;9.14184224;2023-06-14T02:01:20;11.73;;;7.40;;
215;SDS011;70668;48.81286795;9.14184224;2023-06-14T02:03:49;16.77;;;7.60;;
215;SDS011;70668;48.81286795;9.14184224;2023-06-14T02:06:19;14.10;;;7.70;;
215;SDS011;70668;48.81286795;9.14184224;2023-06-14T02:08:47;13.93;;;7.67;;
215;SDS011;70668;48.81286795;9.14184224;2023-06-14T02:11:15;11.03;;;7.70;;
215;SDS011;70668;48.81286795;9.14184224;2023-06-14T02:13:46;13.23;;;7.40;;
215;SDS011;70668;48.81286795;9.14184224;2023-06-14T02:16:16;13.07;;;7.97;;
215;SDS011;70668;48.81286795;9.14184224;2023-06-14T02:18:44;10.77;;;7.17;;
215;SDS011;70668;48.81286795;9.14184224;2023-06-14T02:21:13;15.57;;;7.67;;
215;SDS011;70668;48.81286795;9.14184224;2023-06-14T02:23:45;12.40;;;7.70;;
215;SDS011;70668;48.81286795;9.14184224;2023-06-14T02:26:13;14.07;;;7.83;;
215;SDS011;70668;48.81286795;9.14184224;2023-06-14T02:28:42;13.40;;;8.47;;
215;SDS011;70668;48.81286795;9.14184224;2023-06-14T02:31:13;13.57;;;7.50;;
215;SDS011;70668;48.81286795;9.14184224;2023-06-14T02:33:41;11.30;;;7.67;;
215;SDS011;70668;48.81286795;9.14184224;2023-06-14T02:36:10;13.57;;;7.57;;
215;SDS011;70668;48.81286795;9.14184224;2023-06-14T02:38:38;12.23;;;7.60;;
215;SDS011;70668;48.81286795;9.14184224;2023-06-14T02:41:08;11.83;;;7.60;;
215;SDS011;70668;48.81286795;9.14184224;2023-06-14T02:43:36;14.63;;;8.40;;
215;SDS011;70668;48.81286795;9.14184224;2023-06-14T02:46:05;14.00;;;7.37;;
215;SDS011;70668;48.81286795;9.14184224;2023-06-14T02:48:36;15.03;;;8.20;;
215;SDS011;70668;48.81286795;9.14184224;2023-06-14T02:51:07;13.00;;;8.00;;
215;SDS011;70668;48.81286795;9.14184224;2023-06-14T02:53:36;13.13;;;8.20;;
215;SDS011;70668;48.81286795;9.14184224;2023-06-14T02:56:04;22.80;;;8.67;;
215;SDS011;70668;48.81286795;9.14184224;2023-06-14T02:58:33;15.10;;;8.77;;
215;SDS011;70668;48.81286795;9.14184224;2023-06-14T03:01:01;14.85;;;9.10;;
215;SDS011;70668;48.81286795;9.14184224;2023-06-14T03:03:31;13.60;;;8.57;;
215;SDS011;70668;48.81286795;9.14184224;2023-06-14T03:06:02;24.87;;;9.00;;
215;SDS011;70668;48.81286795;9.14184224;2023-06-14T03:08:33;15.20;;;8.33;;
215;SDS011;70668;48.81286795;9.14184224;2023-06-14T03:11:07;13.57;;;8.57;;
215;SDS011;70668;48.81286795;9.14184224;2023-06-14T03:13:37;13.30;;;8.17;;
215;SDS011;70668;48.81286795;9.14184224;2023-06-14T03:16:06;16.20;;;9.00;;
215;SDS011;70668;48.81286795;9.14184224;2023-06-14T03:18:37;12.53;;;8.37;;
215;SDS011;70668;48.81286795;9.14184224;2023-06-14T03:21:09;18.67;;;8.50;;
215;SDS011;70668;48.81286795;9.14184224;2023-06-14T03:23:41;12.93;;;8.37;;
215;SDS011;70668;48.81286795;9.14184224;2023-06-14T03:26:10;14.63;;;8.70;;
215;SDS011;70668;48.81286795;9.14184224;2023-06-14T03:28:40;14.50;;;8.33;;
215;SDS011;70668;48.81286795;9.14184224;2023-06-14T03:31:09;13.73;;;8.37;;
215;SDS011;70668;48.81286795;9.14184224;2023-06-14T03:33:37;13.17;;;8.23;;
215;SDS011;70668;48.81286795;9.14184224;2023-06-14T03:36:06;15.10;;;8.53;;
215;SDS011;70668;48.81286795;9.14184224;2023-06-14T03:38:37;12.83;;;7.87;;
215;SDS011;70668;48.81286795;9.14184224;2023-06-14T03:41:05;15.00;;;8.20;;
215;SDS011;70668;48.81286795;9.14184224;2023-06-14T03:43:35;14.73;;;8.17;;
215;SDS011;70668;48.81286795;9.14184224;2023-06-14T03:46:03;16.50;;;8.07;;
215;SDS011;70668;48.81286795;9.14184224;2023-06-14T03:48:33;14.40;;;8.30;;
215;SDS011;70668;48.81286795;9.14184224;2023-06-14T03:51:02;13.23;;;8.00;;
215;SDS011;70668;48.81286795;9.14184224;2023-06-14T03:53:33;13.00;;;8.30;;
215;SDS011;70668;48.81286795;9.14184224;2023-06-14T03:56:02;19.33;;;8.07;;
215;SDS011;70668;48.81286795;9.14184224;2023-06-14T03:58:38;12.93;;;8.47;;
215;SDS011;70668;48.81286795;9.14184224;2023-06-14T04:01:07;15.50;;;8.30;;
215;SDS011;70668;48.81286795;9.14184224;2023-06-14T04:03:37;18.70;;;8.50;;
215;SDS011;70668;48.81286795;9.14184224;2023-06-14T04:06:05;14.90;;;8.60;;
215;SDS011;70668;48.81286795;9.14184224;2023-06-14T04:08:37;13.67;;;8.50;;
215;SDS011;70668;48.81286795;9.14184224;2023-06-14T04:11:06;12.77;;;8.17;;
215;SDS011;70668;48.81286795;9.14184224;2023-06-14T04:13:35;14.53;;;8.60;;
215;SDS011;70668;48.81286795;9.14184224;2023-06-14T04:16:04;13.20;;;8.03;;
215;SDS011;70668;48.81286795;9.14184224;2023-06-14T04:18:34;17.57;;;8.37;;
215;SDS011;70668;48.81286795;9.14184224;2023-06-14T04:21:03;17.80;;;8.37;;
215;SDS011;70668;48.81286795;9.14184224;2023-06-14T04:23:33;12.80;;;8.57;;
215;SDS011;70668;48.81286795;9.14184224;2023-06-14T04:26:05;14.67;;;8.60;;
215;SDS011;70668;48.81286795;9.14184224;2023-06-14T04:28:35;13.40;;;9.00;;
215;SDS011;70668;48.81286795;9.14184224;2023-06-14T04:31:06;18.33;;;8.97;;
215;SDS011;70668;48.81286795;9.14184224;2023-06-14T04:33:37;16.00;;;8.90;;
215;SDS011;70668;48.81286795;9.14184224;2023-06-14T04:36:10;14.60;;;8.60;;
215;SDS011;70668;48.81286795;9.14184224;2023-06-14T04:38:39;12.93;;;8.60;;
215;SDS011;70668;48.81286795;9.14184224;2023-06-14T04:41:10;17.07;;;8.90;;
215;SDS011;70668;48.81286795;9.14184224;2023-06-14T04:43:41;13.83;;;9.03;;
215;SDS011;70668;48.81286795;9.14184224;2023-06-14T04:46:14;13.57;;;8.30;;
215;SDS011;70668;48.81286795;9.14184224;2023-06-14T04:48:44;14.60;;;9.10;;
215;SDS011;70668;48.81286795;9.14184224;2023-06-14T04:51:13;15.20;;;8.50;;
215;SDS011;70668;48.81286795;9.14184224;2023-06-14T04:53:42;15.00;;;8.87;;
215;SDS011;70668;48.81286795;9.14184224;2023-06-14T04:56:13;21.60;;;9.90;;
215;SDS011;70668;48.81286795;9.14184224;2023-06-14T04:58:42;18.63;;;9.53;;
215;SDS011;70668;48.81286795;9.14184224;2023-06-14T05:01:11;16.23;;;9.57;;
215;SDS011;70668;48.81286795;9.14184224;2023-06-14T05:03:40;15.10;;;9.67;;
215;SDS011;70668;48.81286795;9.14184224;2023-06-14T05:06:10;17.77;;;9.57;;
215;SDS011;70668;48.81286795;9.14184224;2023-06-14T05:08:39;17.27;;;10.07;;
215;SDS011;70668;48.81286795;9.14184224;2023-06-14T05:11:07;14.13;;;9.43;;
215;SDS011;70668;48.81286795;9.14184224;2023-06-14T05:13:38;17.33;;;9.57;;
215;SDS011;70668;48.81286795;9.14184224;2023-06-14T05:16:10;17.47;;;9.97;;
215;SDS011;70668;48.81286795;9.14184224;2023-06-14T05:18:41;15.57;;;9.20;;
215;SDS011;70668;48.81286795;9.14184224;2023-06-14T05:21:09;16.93;;;9.60;;
215;SDS011;70668;48.81286795;9.14184224;2023-06-14T05:23:37;22.30;;;10.30;;
215;SDS011;70668;48.81286795;9.14184224;2023-06-14T05:26:06;18.30;;;9.70;;
215;SDS011;70668;48.81286795;9.14184224;2023-06-14T05:28:34;15.23;;;9.60;;
215;SDS011;70668;48.81286795;9.14184224;2023-06-14T05:31:05;14.60;;;10.00;;
215;SDS011;70668;48.81286795;9.14184224;2023-06-14T05:33:34;18.23;;;9.67;;
215;SDS011;70668;48.81286795;9.14184224;2023-06-14T05:36:02;19.03;;;9.70;;
215;SDS011;70668;48.81286795;9.14184224;2023-06-14T05:38:31;14.33;;;9.30;;
215;SDS011;70668;48.81286795;9.14184224;2023-06-14T05:40:59;21.97;;;9.70;;
215;SDS011;70668;48.81286795;9.14184224;2023-06-14T05:43:27;15.87;;;9.70;;
215;SDS011;70668;48.81286795;9.14184224;2023-06-14T05:45:57;14.67;;;9.77;;
215;SDS011;70668;48.81286795;9.14184224;2023-06-14T05:48:28;17.63;;;9.53;;
215;SDS011;70668;48.81286795;9.14184224;2023-06-14T05:50:56;15.70;;;9.73;;
215;SDS011;70668;48.81286795;9.14184224;2023-06-14T05:53:25;15.97;;;8.90;;
215;SDS011;70668;48.81286795;9.14184224;2023-06-14T05:55:53;15.70;;;9.13;;
215;SDS011;70668;48.81286795;9.14184224;2023-06-14T05:58:21;14.10;;;9.20;;
215;SDS011;70668;48.81286795;9.14184224;2023-06-14T06:00:50;12.97;;;9.23;;
215;SDS011;70668;48.81286795;9.14184224;2023-06-14T06:03:18;16.00;;;9.13;;
215;SDS011;70668;48.81286795;9.14184224;2023-06-14T06:05:50;13.73;;;9.00;;
215;SDS011;70668;48.81286795;9.14184224;2023-06-14T06:08:19;17.77;;;9.30;;
215;SDS011;70668;48.81286795;9.14184224;2023-06-14T06:10:47;14.80;;;8.70;;
215;SDS011;70668;48.81286795;9.14184224;2023-06-14T06:13:16;19.23;;;9.87;;
215;SDS011;70668;48.81286795;9.14184224;2023-06-14T06:15:44;17.23;;;9.03;;
215;SDS011;70668;48.81286795;9.14184224;2023-06-14T06:18:12;14.37;;;9.20;;
215;SDS011;70668;48.81286795;9.14184224;2023-06-14T06:20:41;15.43;;;9.47;;
215;SDS011;70668;48.81286795;9.14184224;2023-06-14T06:23:14;16.40;;;8.50;;
215;SDS011;70668;48.81286795;9.14184224;2023-06-14T06:25:43;14.43;;;9.10;;
215;SDS011;70668;48.81286795;9.14184224;2023-06-14T06:28:11;23.83;;;9.70;;
215;SDS011;70668;48.81286795;9.14184224;2023-06-14T06:30:40;21.50;;;9.10;;
215;SDS011;70668;48.81286795;9.14184224;2023-06-14T14:44:44;21.97;;;7.53;;
215;SDS011;70668;48.81286795;9.14184224;2023-06-14T14:47:13;9.77;;;7.10;;
215;SDS011;70668;48.81286795;9.14184224;2023-06-14T14:49:41;14.07;;;7.23;;
215;SDS011;70668;48.81286795;9.14184224;2023-06-14T14:52:10;11.10;;;8.00;;
215;SDS011;70668;48.81286795;9.14184224;2023-06-14T14:54:38;10.97;;;7.67;;
215;SDS011;70668;48.81286795;9.14184224;2023-06-14T14:57:06;9.53;;;7.23;;
215;SDS011;70668;48.81286795;9.14184224;2023-06-14T14:59:35;11.53;;;8.17;;
215;SDS011;70668;48.81286795;9.14184224;2023-06-14T15:02:07;11.67;;;7.10;;
215;SDS011;70668;48.81286795;9.14184224;2023-06-14T15:04:35;12.40;;;7.63;;
215;SDS011;70668;48.81286795;9.14184224;2023-06-14T15:07:04;16.10;;;8.23;;
215;SDS011;70668;48.81286795;9.14184224;2023-06-14T15:09:32;15.10;;;7.60;;
215;SDS011;70668;48.81286795;9.14184224;2023-06-14T15:12:01;11.00;;;7.80;;
215;SDS011;70668;48.81286795;9.14184224;2023-06-14T15:14:29;16.37;;;7.37;;
215;SDS011;70668;48.81286795;9.14184224;2023-06-14T15:16:58;11.97;;;7.07;;
215;SDS011;70668;48.81286795;9.14184224;2023-06-14T15:19:29;13.37;;;7.50;;
215;SDS011;70668;48.81286795;9.14184224;2023-06-14T15:21:59;11.87;;;7.60;;
215;SDS011;70668;48.81286795;9.14184224;2023-06-14T15:24:27;11.50;;;8.17;;
215;SDS011;70668;48.81286795;9.14184224;2023-06-14T15:26:56;17.10;;;7.50;;
215;SDS011;70668;48.81286795;9.14184224;2023-06-14T15:29:24;10.33;;;7.60;;
215;SDS011;70668;48.81286795;9.14184224;2023-06-14T15:31:52;14.07;;;6.90;;
215;SDS011;70668;48.81286795;9.14184224;2023-06-14T15:34:23;11.60;;;7.13;;
215;SDS011;70668;48.81286795;9.14184224;2023-06-14T15:36:54;14.40;;;7.03;;
215;SDS011;70668;48.81286795;9.14184224;2023-06-14T15:39:22;11.43;;;6.97;;
215;SDS011;70668;48.81286795;9.14184224;2023-06-14T15:41:52;13.40;;;6.50;;
215;SDS011;70668;48.81286795;9.14184224;2023-06-14T15:44:20;12.00;;;7.70;;
215;SDS011;70668;48.81286795;9.14184224;2023-06-14T15:46:48;15.83;;;7.03;;
215;SDS011;70668;48.81286795;9.14184224;2023-06-14T15:49:17;11.27;;;6.90;;
215;SDS011;70668;48.81286795;9.14184224;2023-06-14T15:51:45;11.93;;;6.90;;
215;SDS011;70668;48.81286795;9.14184224;2023-06-14T15:54:16;16.60;;;7.70;;
215;SDS011;70668;48.81286795;9.14184224;2023-06-14T15:56:45;10.50;;;6.90;;
215;SDS011;70668;48.81286795;9.14184224;2023-06-14T15:59:13;10.07;;;7.30;;
215;SDS011;70668;48.81286795;9.14184224;2023-06-14T16:01:42;14.90;;;7.27;;
215;SDS011;70668;48.81286795;9.14184224;2023-06-14T16:04:10;10.67;;;7.80;;
215;SDS011;70668;48.81286795;9.14184224;2023-06-14T16:06:38;12.10;;;7.20;;
215;SDS011;70668;48.81286795;9.14184224;2023-06-14T16:09:07;11.27;;;6.57;;
215;SDS011;70668;48.81286795;9.14184224;2023-06-14T16:11:38;12.50;;;7.07;;
215;SDS011;70668;48.81286795;9.14184224;2023-06-14T16:14:06;9.40;;;6.90;;
215;SDS011;70668;48.81286795;9.14184224;2023-06-14T16:16:34;9.93;;;7.30;;
215;SDS011;70668;48.81286795;9.14184224;2023-06-14T16:19:03;12.27;;;7.40;;
215;SDS011;70668;48.81286795;9.14184224;2023-06-14T16:21:31;11.60;;;7.40;;
215;SDS011;70668;48.81286795;9.14184224;2023-06-14T16:24:01;13.90;;;7.20;;
215;SDS011;70668;48.81286795;9.14184224;2023-06-14T16:26:30;13.30;;;7.17;;
215;SDS011;70668;48.81286795;9.14184224;2023-06-14T16:29:01;12.43;;;6.90;;
215;SDS011;70668;48.81286795;9.14184224;2023-06-14T16:31:30;12.90;;;7.37;;
215;SDS011;70668;48.81286795;9.14184224;2023-06-14T16:33:58;11.00;;;6.40;;
215;SDS011;70668;48.81286795;9.14184224;2023-06-14T16:36:26;11.20;;;6.70;;
215;SDS011;70668;48.81286795;9.14184224;2023-06-14T16:38:55;15.03;;;7.47;;
215;SDS011;70668;48.81286795;9.14184224;2023-06-14T16:41:24;9.93;;;6.77;;
215;SDS011;70668;48.81286795;9.14184224;2023-06-14T16:43:52;12.67;;;7.10;;
215;SDS011;70668;48.81286795;9.14184224;2023-06-14T16:46:29;12.40;;;7.03;;
215;SDS011;70668;48.81286795;9.14184224;2023-06-14T16:48:59;10.77;;;7.20;;
215;SDS011;70668;48.81286795;9.14184224;2023-06-14T16:51:27;12.63;;;7.50;;
215;SDS011;70668;48.81286795;9.14184224;2023-06-14T16:53:56;11.13;;;7.23;;
215;SDS011;70668;48.81286795;9.14184224;2023-06-14T16:56:24;12.10;;;7.03;;
215;SDS011;70668;48.81286795;9.14184224;2023-06-14T16:58:53;10.93;;;6.63;;
215;SDS011;70668;48.81286795;9.14184224;2023-06-14T17:01:22;12.37;;;7.10;;
215;SDS011;70668;48.81286795;9.14184224;2023-06-14T17:03:53;9.77;;;6.93;;
215;SDS011;70668;48.81286795;9.14184224;2023-06-14T17:06:21;8.60;;;6.80;;
215;SDS011;70668;48.81286795;9.14184224;2023-06-14T17:08:50;12.40;;;7.10;;
215;SDS011;70668;48.81286795;9.14184224;2023-06-14T17:11:18;11.30;;;7.20;;
215;SDS011;70668;48.81286795;9.14184224;2023-06-14T17:13:47;10.57;;;7.20;;
215;SDS011;70668;48.81286795;9.14184224;2023-06-14T17:16:16;9.53;;;6.60;;
215;SDS011;70668;48.81286795;9.14184224;2023-06-14T17:18:44;11.40;;;7.30;;
215;SDS011;70668;48.81286795;9.14184224;2023-06-14T17:21:15;10.67;;;7.43;;
215;SDS011;70668;48.81286795;9.14184224;2023-06-14T17:23:44;12.53;;;7.13;;
215;SDS011;70668;48.81286795;9.14184224;2023-06-14T17:26:12;11.40;;;7.47;;
215;SDS011;70668;48.81286795;9.14184224;2023-06-14T17:28:41;10.87;;;7.30;;
215;SDS011;70668;48.81286795;9.14184224;2023-06-14T17:31:09;10.33;;;7.00;;
215;SDS011;70668;48.81286795;9.14184224;2023-06-14T17:33:38;32.03;;;7.50;;
215;SDS011;70668;48.81286795;9.14184224;2023-06-14T17:36:06;11.73;;;7.47;;
215;SDS011;70668;48.81286795;9.14184224;2023-06-14T17:38:37;10.67;;;7.80;;
215;SDS011;70668;48.81286795;9.14184224;2023-06-14T17:41:06;10.53;;;7.30;;
215;SDS011;70668;48.81286795;9.14184224;2023-06-14T17:43:34;12.97;;;7.17;;
215;SDS011;70668;48.81286795;9.14184224;2023-06-14T17:46:03;10.73;;;6.90;;
215;SDS011;70668;48.81286795;9.14184224;2023-06-14T17:48:32;11.63;;;7.53;;
215;SDS011;70668;48.81286795;9.14184224;2023-06-14T17:51:01;16.00;;;7.50;;
215;SDS011;70668;48.81286795;9.14184224;2023-06-14T17:53:29;9.53;;;7.43;;
215;SDS011;70668;48.81286795;9.14184224;2023-06-14T17:56:01;13.23;;;7.43;;
215;SDS011;70668;48.81286795;9.14184224;2023-06-14T17:58:30;10.83;;;7.10;;
215;SDS011;70668;48.81286795;9.14184224;2023-06-14T18:00:59;13.60;;;7.80;;
215;SDS011;70668;48.81286795;9.14184224;2023-06-14T18:03:27;11.00;;;7.30;;
215;SDS011;70668;48.81286795;9.14184224;2023-06-14T18:05:56;12.17;;;6.73;;
215;SDS011;70668;48.81286795;9.14184224;2023-06-14T18:08:25;13.80;;;7.30;;
215;SDS011;70668;48.81286795;9.14184224;2023-06-14T18:10:53;15.03;;;7.57;;
215;SDS011;70668;48.81286795;9.14184224;2023-06-14T18:13:25;9.90;;;7.20;;
215;SDS011;70668;48.81286795;9.14184224;2023-06-14T18:15:53;14.50;;;7.07;;
215;SDS011;70668;48.81286795;9.14184224;2023-06-14T18:18:23;12.10;;;7.00;;
215;SDS011;70668;48.81286795;9.14184224;2023-06-14T18:20:51;10.13;;;6.80;;
215;SDS011;70668;48.81286795;9.14184224;2023-06-14T18:23:20;11.60;;;7.53;;
215;SDS011;70668;48.81286795;9.14184224;2023-06-14T18:25:48;10.97;;;7.20;;
215;SDS011;70668;48.81286795;9.14184224;2023-06-14T18:28:18;12.40;;;7.93;;
215;SDS011;70668;48.81286795;9.14184224;2023-06-14T18:30:49;11.80;;;7.30;;
215;SDS011;70668;48.81286795;9.14184224;2023-06-14T18:33:17;10.40;;;7.33;;
215;SDS011;70668;48.81286795;9.14184224;2023-06-14T18:35:46;15.47;;;7.67;;
215;SDS011;70668;48.81286795;9.14184224;2023-06-14T18:38:14;10.20;;;7.33;;
215;SDS011;70668;48.81286795;9.14184224;2023-06-14T18:40:43;10.93;;;7.60;;
215;SDS011;70668;48.81286795;9.14184224;2023-06-14T18:43:11;11.63;;;7.80;;
215;SDS011;70668;48.81286795;9.14184224;2023-06-14T18:45:39;10.70;;;7.80;;
215;SDS011;70668;48.81286795;9.14184224;2023-06-14T18:48:11;13.87;;;7.60;;
215;SDS011;70668;48.81286795;9.14184224;2023-06-14T18:50:40;12.20;;;7.70;;
215;SDS011;70668;48.81286795;9.14184224;2023-06-14T18:53:08;9.87;;;7.40;;
215;SDS011;70668;48.81286795;9.14184224;2023-06-14T18:55:36;9.90;;;7.23;;
215;SDS011;70668;48.81286795;9.14184224;2023-06-14T18:58:05;12.07;;;7.73;;
215;SDS011;70668;48.81286795;9.14184224;2023-06-14T19:00:34;14.90;;;7.90;;
215;SDS011;70668;48.81286795;9.14184224;2023-06-14T19:03:03;15.43;;;7.23;;
215;SDS011;70668;48.81286795;9.14184224;2023-06-14T19:05:34;16.73;;;7.87;;
215;SDS011;70668;48.81286795;9.14184224;2023-06-14T19:08:03;10.20;;;7.40;;
215;SDS011;70668;48.81286795;9.14184224;2023-06-14T19:10:32;9.70;;;7.03;;
215;SDS011;70668;48.81286795;9.14184224;2023-06-14T19:13:00;10.47;;;7.80;;
215;SDS011;70668;48.81286795;9.14184224;2023-06-14T19:15:29;11.80;;;7.90;;
215;SDS011;70668;48.81286795;9.14184224;2023-06-14T19:17:57;15.43;;;7.10;;
215;SDS011;70668;48.81286795;9.14184224;2023-06-14T19:20:27;13.20;;;7.83;;
215;SDS011;70668;48.81286795;9.14184224;2023-06-14T19:22:59;16.83;;;8.47;;
215;SDS011;70668;48.81286795;9.14184224;2023-06-14T19:25:28;12.60;;;7.40;;
215;SDS011;70668;48.81286795;9.14184224;2023-06-14T19:27:56;12.77;;;7.37;;
215;SDS011;70668;48.81286795;9.14184224;2023-06-14T19:30:25;11.40;;;7.23;;
215;SDS011;70668;48.81286795;9.14184224;2023-06-14T19:32:54;15.47;;;7.63;;
215;SDS011;70668;48.81286795;9.14184224;2023-06-14T19:35:22;12.03;;;7.47;;
215;SDS011;70668;48.81286795;9.14184224;2023-06-14T19:37:51;9.60;;;7.23;;
215;SDS011;70668;48.81286795;9.14184224;2023-06-14T19:40:22;10.40;;;7.17;;
215;SDS011;70668;48.81286795;9.14184224;2023-06-14T19:42:50;14.47;;;7.80;;
215;SDS011;70668;48.81286795;9.14184224;2023-06-14T19:45:19;14.50;;;7.60;;
215;SDS011;70668;48.81286795;9.14184224;2023-06-14T19:47:47;10.80;;;7.70;;
215;SDS011;70668;48.81286795;9.14184224;2023-06-14T19:50:15;12.30;;;7.60;;
215;SDS011;70668;48.81286795;9.14184224;2023-06-14T19:52:44;10.80;;;7.60;;
215;SDS011;70668;48.81286795;9.14184224;2023-06-14T19:55:12;12.97;;;7.53;;
215;SDS011;70668;48.81286795;9.14184224;2023-06-14T19:57:43;13.13;;;7.30;;
215;SDS011;70668;48.81286795;9.14184224;2023-06-14T20:00:12;13.83;;;8.13;;
215;SDS011;70668;48.81286795;9.14184224;2023-06-14T20:02:41;12.30;;;8.50;;
215;SDS011;70668;48.81286795;9.14184224;2023-06-14T20:05:10;17.33;;;7.87;;
215;SDS011;70668;48.81286795;9.14184224;2023-06-14T20:07:38;17.30;;;7.43;;
215;SDS011;70668;48.81286795;9.14184224;2023-06-14T20:10:07;10.63;;;6.80;;
215;SDS011;70668;48.81286795;9.14184224;2023-06-14T20:12:37;11.77;;;7.57;;
215;SDS011;70668;48.81286795;9.14184224;2023-06-14T20:15:09;15.23;;;7.77;;
215;SDS011;70668;48.81286795;9.14184224;2023-06-14T20:17:38;12.87;;;7.70;;
215;SDS011;70668;48.81286795;9.14184224;2023-06-14T20:20:07;10.80;;;7.80;;
215;SDS011;70668;48.81286795;9.14184224;2023-06-14T20:22:35;12.87;;;7.57;;
215;SDS011;70668;48.81286795;9.14184224;2023-06-14T20:25:05;10.07;;;7.43;;
215;SDS011;70668;48.81286795;9.14184224;2023-06-14T20:27:36;11.20;;;7.73;;
215;SDS011;70668;48.81286795;9.14184224;2023-06-14T20:30:05;12.80;;;7.67;;
215;SDS011;70668;48.81286795;9.14184224;2023-06-14T20:32:37;14.63;;;8.23;;
215;SDS011;70668;48.81286795;9.14184224;2023-06-14T20:35:05;15.70;;;7.73;;
215;SDS011;70668;48.81286795;9.14184224;2023-06-14T20:37:34;11.80;;;8.40;;
215;SDS011;70668;48.81286795;9.14184224;2023-06-14T20:40:03;11.43;;;8.13;;
215;SDS011;70668;48.81286795;9.14184224;2023-06-14T20:42:33;14.77;;;8.10;;
215;SDS011;70668;48.81286795;9.14184224;2023-06-14T20:45:01;12.37;;;8.20;;
215;SDS011;70668;48.81286795;9.14184224;2023-06-14T20:47:31;11.23;;;8.03;;
215;SDS011;70668;48.81286795;9.14184224;2023-06-14T20:50:04;11.77;;;8.70;;
215;SDS011;70668;48.81286795;9.14184224;2023-06-14T20:52:36;11.30;;;8.10;;
215;SDS011;70668;48.81286795;9.14184224;2023-06-14T20:55:05;15.40;;;8.80;;
215;SDS011;70668;48.81286795;9.14184224;2023-06-14T20:57:34;12.50;;;8.50;;
215;SDS011;70668;48.81286795;9.14184224;2023-06-14T21:00:03;13.90;;;8.43;;
215;SDS011;70668;48.81286795;9.14184224;2023-06-14T21:02:36;15.87;;;9.00;;
215;SDS011;70668;48.81286795;9.14184224;2023-06-14T21:05:07;16.97;;;8.97;;
215;SDS011;70668;48.81286795;9.14184224;2023-06-14T21:07:36;13.80;;;7.90;;
215;SDS011;70668;48.81286795;9.14184224;2023-06-14T21:10:05;14.73;;;7.80;;
215;SDS011;70668;48.81286795;9.14184224;2023-06-14T21:12:34;11.57;;;8.30;;
215;SDS011;70668;48.81286795;9.14184224;2023-06-14T21:15:02;12.97;;;8.30;;
215;SDS011;70668;48.81286795;9.14184224;2023-06-14T21:17:33;11.73;;;8.60;;
215;SDS011;70668;48.81286795;9.14184224;2023-06-14T21:20:01;13.53;;;9.33;;
215;SDS011;70668;48.81286795;9.14184224;2023-06-14T21:22:33;13.97;;;8.57;;
215;SDS011;70668;48.81286795;9.14184224;2023-06-14T21:25:03;12.40;;;8.50;;